createdAt,value
2019-05-11T00:02:00.803Z,99.90
2019-05-11T00:04:29.889Z,99.90
2019-05-11T00:06:58.807Z,99.90
2019-05-11T00:09:27.827Z,99.90
2019-05-11T00:11:56.953Z,99.90
2019-05-11T00:14:26.246Z,99.90
2019-05-11T00:16:55.527Z,99.90
2019-05-11T00:19:24.485Z,99.90
2019-05-11T00:21:54.018Z,99.90
2019-05-11T00:24:23.065Z,99.90
2019-05-11T00:26:52.165Z,99.90
2019-05-11T00:29:21.641Z,99.90
2019-05-11T00:31:50.581Z,99.90
2019-05-11T00:34:19.783Z,99.90
2019-05-11T00:36:48.703Z,99.90
2019-05-11T00:39:17.655Z,99.90
2019-05-11T00:41:46.697Z,99.90
2019-05-11T00:44:15.654Z,99.90
2019-05-11T00:46:44.633Z,99.90
2019-05-11T00:49:13.635Z,99.90
2019-05-11T00:51:42.585Z,99.90
2019-05-11T00:54:11.633Z,99.90
2019-05-11T00:56:40.544Z,99.90
2019-05-11T00:59:21.374Z,99.90
2019-05-11T01:01:40.207Z,99.90
2019-05-11T01:04:09.234Z,99.90
2019-05-11T01:06:38.233Z,99.90
2019-05-11T01:09:08.150Z,99.90
2019-05-11T01:11:37.200Z,99.90
2019-05-11T01:14:06.175Z,99.90
2019-05-11T01:16:35.143Z,99.90
2019-05-11T01:19:04.210Z,99.90
2019-05-11T01:21:33.490Z,99.90
2019-05-11T01:24:02.419Z,99.90
2019-05-11T01:26:31.763Z,99.90
2019-05-11T01:29:00.747Z,99.90
2019-05-11T01:31:29.696Z,99.90
2019-05-11T01:33:58.696Z,99.90
2019-05-11T01:36:27.798Z,99.90
2019-05-11T01:38:56.742Z,99.90
2019-05-11T01:41:25.731Z,99.90
2019-05-11T01:43:54.762Z,99.90
2019-05-11T01:46:23.759Z,99.90
2019-05-11T01:48:53.002Z,99.90
2019-05-11T01:51:22.707Z,99.90
2019-05-11T01:53:51.642Z,99.90
2019-05-11T01:56:20.887Z,99.90
2019-05-11T01:58:49.877Z,99.90
2019-05-11T02:01:18.894Z,99.90
2019-05-11T02:03:48.014Z,99.90
2019-05-11T02:06:17.215Z,99.90
2019-05-11T02:08:46.539Z,99.90
2019-05-11T02:11:16.374Z,99.90
2019-05-11T02:13:45.768Z,99.90
2019-05-11T02:16:15.166Z,99.90
2019-05-11T02:18:44.148Z,99.90
2019-05-11T02:21:13.045Z,99.90
2019-05-11T02:23:42.247Z,99.90
2019-05-11T02:26:11.630Z,99.90
2019-05-11T02:28:40.575Z,99.90
2019-05-11T02:31:09.707Z,99.90
2019-05-11T02:33:38.918Z,99.90
2019-05-11T02:36:08.218Z,99.90
2019-05-11T02:38:37.179Z,99.90
2019-05-11T02:41:06.091Z,99.90
2019-05-11T02:43:35.110Z,99.90
2019-05-11T02:46:04.051Z,99.90
2019-05-11T02:48:33.006Z,99.90
2019-05-11T02:51:02.623Z,99.90
2019-05-11T02:53:32.669Z,99.90
2019-05-11T02:56:02.194Z,99.90
2019-05-11T02:58:31.131Z,99.90
2019-05-11T03:01:00.043Z,99.90
2019-05-11T03:03:29.021Z,99.90
2019-05-11T03:05:58.004Z,99.90
2019-05-11T03:08:27.145Z,99.90
2019-05-11T03:10:56.170Z,99.90
2019-05-11T03:13:25.778Z,99.90
2019-05-11T03:15:54.814Z,99.90
2019-05-11T03:18:23.886Z,99.90
2019-05-11T03:20:52.893Z,99.90
2019-05-11T03:23:21.835Z,99.90
2019-05-11T03:25:50.800Z,99.90
2019-05-11T03:28:20.330Z,99.90
2019-05-11T03:30:49.553Z,99.90
2019-05-11T03:33:18.896Z,99.90
2019-05-11T03:35:47.997Z,99.90
2019-05-11T03:38:16.957Z,99.90
2019-05-11T03:40:46.150Z,99.90
2019-05-11T03:43:15.186Z,99.90
2019-05-11T03:45:44.466Z,99.90
2019-05-11T03:48:13.918Z,99.90
2019-05-11T03:50:43.153Z,99.90
2019-05-11T03:53:12.378Z,99.90
2019-05-11T03:55:41.274Z,99.90
2019-05-11T03:58:10.268Z,99.90
2019-05-11T04:00:39.283Z,99.90
2019-05-11T04:03:08.266Z,99.90
2019-05-11T04:05:37.097Z,99.90
2019-05-11T04:08:06.032Z,99.90
2019-05-11T04:10:34.981Z,99.90
2019-05-11T04:13:03.990Z,99.90
2019-05-11T04:15:33.073Z,99.90
2019-05-11T04:18:02.587Z,99.90
2019-05-11T04:20:31.493Z,99.90
2019-05-11T04:23:00.430Z,99.90
2019-05-11T04:25:29.993Z,99.90
2019-05-11T04:27:58.865Z,99.90
2019-05-11T04:30:27.843Z,99.90
2019-05-11T04:32:57.091Z,99.90
2019-05-11T04:35:25.938Z,99.90
2019-05-11T04:37:55.064Z,99.90
2019-05-11T04:40:24.319Z,99.90
2019-05-11T04:42:56.070Z,99.90
2019-05-11T04:45:24.150Z,99.90
2019-05-11T04:47:53.132Z,99.90
2019-05-11T04:50:21.991Z,99.90
2019-05-11T04:52:50.830Z,99.90
2019-05-11T04:55:19.756Z,99.90
2019-05-11T04:57:48.716Z,99.90
2019-05-11T05:00:17.816Z,99.90
2019-05-11T05:02:46.769Z,99.90
2019-05-11T05:05:15.659Z,99.90
2019-05-11T05:07:48.789Z,99.90
2019-05-11T05:10:19.917Z,99.90
2019-05-11T05:12:51.328Z,99.90
2019-05-11T05:15:17.547Z,99.90
2019-05-11T05:17:46.794Z,99.90
2019-05-11T05:20:16.842Z,99.90
2019-05-11T05:22:45.916Z,99.90
2019-05-11T05:25:14.963Z,99.90
2019-05-11T05:27:43.929Z,99.90
2019-05-11T05:30:13.302Z,99.90
2019-05-11T05:32:42.400Z,99.90
2019-05-11T05:35:11.436Z,99.90
2019-05-11T05:37:40.847Z,99.90
2019-05-11T05:40:10.245Z,99.90
2019-05-11T05:42:39.267Z,99.90
2019-05-11T05:45:08.413Z,99.90
2019-05-11T05:47:37.263Z,99.90
2019-05-11T05:50:06.896Z,99.90
2019-05-11T05:52:35.858Z,99.90
2019-05-11T05:55:05.025Z,99.90
2019-05-11T05:57:33.908Z,99.90
2019-05-11T06:00:03.065Z,99.90
2019-05-11T06:02:32.020Z,99.90
2019-05-11T06:05:01.102Z,99.90
2019-05-11T06:07:30.028Z,99.90
2019-05-11T06:09:59.232Z,99.90
2019-05-11T06:12:28.193Z,99.90
2019-05-11T06:14:57.190Z,99.90
2019-05-11T06:17:26.220Z,99.90
2019-05-11T06:19:55.131Z,99.90
2019-05-11T06:22:24.056Z,99.90
2019-05-11T06:24:53.588Z,99.90
2019-05-11T06:27:22.803Z,99.90
2019-05-11T06:29:51.998Z,99.90
2019-05-11T06:32:21.300Z,99.90
2019-05-11T06:34:50.210Z,99.90
2019-05-11T06:37:19.128Z,99.90
2019-05-11T06:39:48.124Z,99.90
2019-05-11T06:42:17.109Z,99.90
2019-05-11T06:44:46.134Z,99.90
2019-05-11T06:47:15.150Z,99.90
2019-05-11T06:49:44.395Z,99.90
2019-05-11T06:52:13.425Z,99.90
2019-05-11T06:54:42.835Z,99.90
2019-05-11T06:57:11.868Z,99.90
2019-05-11T06:59:40.910Z,99.90
2019-05-11T07:02:09.957Z,99.90
2019-05-11T07:04:41.345Z,99.90
2019-05-11T07:07:10.470Z,99.90
2019-05-11T07:09:39.848Z,99.90
2019-05-11T07:12:09.220Z,99.90
2019-05-11T07:14:38.601Z,99.90
2019-05-11T07:17:07.763Z,99.90
2019-05-11T07:19:36.773Z,99.90
2019-05-11T07:22:05.769Z,99.90
2019-05-11T07:24:34.781Z,99.90
2019-05-11T07:27:03.942Z,99.90
2019-05-11T07:29:33.050Z,99.90
2019-05-11T07:32:12.241Z,99.90
2019-05-11T07:34:33.565Z,99.90
2019-05-11T07:37:02.747Z,99.90
2019-05-11T07:39:31.824Z,99.90
2019-05-11T07:42:00.835Z,99.90
2019-05-11T07:44:38.254Z,99.90
2019-05-11T07:47:00.366Z,99.90
2019-05-11T07:49:29.359Z,99.90
2019-05-11T07:51:58.792Z,99.90
2019-05-11T07:54:28.351Z,99.90
2019-05-11T07:56:58.421Z,99.90
2019-05-11T07:59:28.946Z,99.90
2019-05-11T08:01:58.634Z,99.90
2019-05-11T08:04:28.747Z,99.90
2019-05-11T08:06:58.568Z,99.90
2019-05-11T08:09:28.053Z,99.90
2019-05-11T08:11:58.498Z,99.90
2019-05-11T08:14:28.803Z,99.90
2019-05-11T08:16:59.371Z,99.90
2019-05-11T08:19:28.830Z,99.90
2019-05-11T08:21:58.408Z,99.90
2019-05-11T08:24:28.453Z,99.90
2019-05-11T08:26:58.419Z,99.90
2019-05-11T08:29:27.972Z,99.90
2019-05-11T08:31:57.918Z,99.90
2019-05-11T08:34:28.612Z,99.90
2019-05-11T08:36:58.526Z,99.90
2019-05-11T08:39:28.804Z,99.90
2019-05-11T08:41:59.074Z,99.90
2019-05-11T08:44:28.883Z,99.90
2019-05-11T08:46:58.402Z,99.90
2019-05-11T08:49:28.687Z,99.90
2019-05-11T08:51:58.740Z,99.90
2019-05-11T08:54:28.872Z,99.90
2019-05-11T08:56:58.770Z,99.90
2019-05-11T08:59:28.134Z,99.90
2019-05-11T09:01:58.807Z,99.90
2019-05-11T09:04:28.782Z,99.90
2019-05-11T09:06:58.647Z,99.90
2019-05-11T09:09:28.929Z,99.90
2019-05-11T09:11:59.673Z,99.90
2019-05-11T09:14:28.816Z,99.90
2019-05-11T09:16:58.021Z,99.90
2019-05-11T09:19:28.520Z,99.90
2019-05-11T09:21:58.758Z,99.90
2019-05-11T09:24:28.508Z,99.90
2019-05-11T09:26:58.636Z,99.90
2019-05-11T09:29:28.318Z,99.90
2019-05-11T09:31:58.357Z,99.90
2019-05-11T09:34:28.906Z,99.90
2019-05-11T09:36:58.793Z,99.90
2019-05-11T09:39:28.190Z,99.90
2019-05-11T09:41:58.460Z,99.90
2019-05-11T09:44:28.882Z,99.90
2019-05-11T09:47:01.850Z,99.90
2019-05-11T09:49:43.768Z,99.90
2019-05-11T09:52:00.049Z,99.90
2019-05-11T09:54:29.271Z,99.90
2019-05-11T09:57:01.201Z,99.90
2019-05-11T09:59:30.224Z,99.90
2019-05-11T10:02:02.090Z,99.90
2019-05-11T10:04:30.997Z,99.90
2019-05-11T10:06:59.872Z,99.90
2019-05-11T10:09:28.925Z,99.90
2019-05-11T10:11:58.569Z,99.90
2019-05-11T10:14:29.408Z,99.90
2019-05-11T10:16:58.768Z,99.90
2019-05-11T10:19:28.569Z,99.90
2019-05-11T10:21:58.133Z,99.90
2019-05-11T10:24:28.725Z,99.90
2019-05-11T10:26:57.987Z,99.90
2019-05-11T10:29:28.872Z,99.90
2019-05-11T10:31:58.809Z,99.90
2019-05-11T10:34:28.643Z,99.90
2019-05-11T10:36:58.249Z,99.90
2019-05-11T10:39:28.056Z,99.90
2019-05-11T10:41:58.383Z,99.90
2019-05-11T10:44:28.211Z,99.90
2019-05-11T10:46:58.890Z,99.90
2019-05-11T10:49:28.929Z,99.90
2019-05-11T10:51:58.772Z,99.90
2019-05-11T10:54:28.695Z,99.90
2019-05-11T10:56:58.139Z,99.90
2019-05-11T10:59:28.331Z,99.90
2019-05-11T11:01:58.945Z,99.90
2019-05-11T11:04:28.876Z,99.90
2019-05-11T11:06:59.202Z,99.90
2019-05-11T11:09:28.478Z,99.90
2019-05-11T11:11:58.102Z,99.90
2019-05-11T11:14:28.651Z,99.90
2019-05-11T11:16:58.558Z,99.90
2019-05-11T11:19:29.043Z,99.90
2019-05-11T11:22:22.265Z,99.90
2019-05-11T11:24:29.375Z,99.90
2019-05-11T11:26:58.750Z,99.90
2019-05-11T11:29:28.749Z,99.50
2019-05-11T11:31:58.820Z,98.50
2019-05-11T11:34:28.165Z,98.40
2019-05-11T11:36:58.147Z,98.50
2019-05-11T11:39:28.250Z,97.20
2019-05-11T11:41:58.640Z,97.90
2019-05-11T11:44:28.733Z,98.50
2019-05-11T11:46:59.113Z,98.60
2019-05-11T11:49:28.751Z,98.70
2019-05-11T11:51:58.078Z,98.70
2019-05-11T11:54:28.753Z,98.60
2019-05-11T11:56:59.099Z,98.80
2019-05-11T11:59:28.914Z,98.30
2019-05-11T12:01:58.494Z,98.90
2019-05-11T12:04:28.367Z,99.10
2019-05-11T12:06:59.668Z,98.90
2019-05-11T12:09:28.940Z,98.90
2019-05-11T12:11:58.316Z,98.20
2019-05-11T12:14:28.252Z,97.50
2019-05-11T12:17:06.993Z,96.80
2019-05-11T12:19:28.727Z,95.50
2019-05-11T12:21:58.220Z,95.90
2019-05-11T12:24:28.796Z,95.20
2019-05-11T12:26:58.698Z,96.00
2019-05-11T12:29:28.367Z,95.80
2019-05-11T12:31:59.086Z,96.30
2019-05-11T12:34:28.440Z,95.50
2019-05-11T12:36:58.106Z,94.80
2019-05-11T12:39:28.321Z,93.70
2019-05-11T12:41:58.248Z,93.50
2019-05-11T12:44:28.369Z,94.10
2019-05-11T12:46:58.373Z,94.80
2019-05-11T12:49:28.882Z,95.10
2019-05-11T12:52:00.092Z,96.00
2019-05-11T12:54:28.975Z,95.70
2019-05-11T12:56:58.191Z,95.80
2019-05-11T12:59:27.933Z,95.60
2019-05-11T13:01:59.056Z,94.10
2019-05-11T13:04:28.469Z,94.20
2019-05-11T13:06:58.106Z,94.30
2019-05-11T13:09:28.780Z,93.10
2019-05-11T13:11:58.771Z,92.30
2019-05-11T13:14:28.040Z,91.70
2019-05-11T13:16:58.982Z,91.90
2019-05-11T13:19:28.430Z,91.90
2019-05-11T13:21:59.001Z,91.70
2019-05-11T13:24:28.756Z,91.90
2019-05-11T13:26:59.793Z,91.50
2019-05-11T13:29:29.037Z,91.00
2019-05-11T13:31:59.095Z,92.60
2019-05-11T13:34:31.795Z,93.90
2019-05-11T13:37:01.075Z,94.90
2019-05-11T13:39:30.039Z,95.20
2019-05-11T13:41:59.166Z,95.20
2019-05-11T13:44:28.201Z,94.90
2019-05-11T13:46:58.685Z,94.90
2019-05-11T13:49:28.738Z,93.90
2019-05-11T13:51:58.507Z,93.00
2019-05-11T13:54:29.619Z,92.80
2019-05-11T13:56:58.969Z,91.80
2019-05-11T13:59:28.529Z,91.20
2019-05-11T14:01:58.401Z,91.90
2019-05-11T14:04:28.126Z,91.30
2019-05-11T14:06:58.656Z,91.40
2019-05-11T14:09:28.861Z,91.50
2019-05-11T14:11:58.479Z,90.80
2019-05-11T14:14:28.920Z,90.50
2019-05-11T14:16:58.832Z,90.40
2019-05-11T14:19:28.936Z,90.30
2019-05-11T14:21:58.581Z,90.40
2019-05-11T14:24:28.792Z,90.60
2019-05-11T14:26:58.500Z,91.00
2019-05-11T14:29:28.433Z,91.50
2019-05-11T14:31:58.155Z,91.20
2019-05-11T14:34:28.353Z,90.60
2019-05-11T14:36:58.339Z,90.90
2019-05-11T14:39:28.083Z,90.60
2019-05-11T14:41:58.694Z,90.20
2019-05-11T14:44:29.244Z,90.20
2019-05-11T14:46:59.292Z,89.90
2019-05-11T14:49:28.596Z,89.70
2019-05-11T14:51:57.814Z,89.90
2019-05-11T14:54:28.986Z,89.40
2019-05-11T14:56:58.767Z,88.60
2019-05-11T14:59:28.602Z,89.20
2019-05-11T15:01:58.383Z,89.10
2019-05-11T15:04:28.695Z,87.70
2019-05-11T15:06:58.172Z,89.30
2019-05-11T15:09:28.510Z,88.90
2019-05-11T15:11:58.116Z,87.60
2019-05-11T15:14:28.869Z,88.20
2019-05-11T15:16:58.206Z,88.10
2019-05-11T15:19:27.954Z,88.40
2019-05-11T15:21:58.145Z,88.90
2019-05-11T15:24:28.829Z,88.90
2019-05-11T15:26:58.636Z,88.50
2019-05-11T15:29:28.777Z,88.20
2019-05-11T15:31:58.059Z,88.30
2019-05-11T15:34:28.886Z,88.10
2019-05-11T15:36:58.412Z,87.90
2019-05-11T15:39:28.720Z,87.50
2019-05-11T15:42:09.217Z,88.30
2019-05-11T15:44:29.030Z,89.00
2019-05-11T15:46:58.364Z,88.30
2019-05-11T15:49:28.425Z,86.50
2019-05-11T15:51:57.991Z,84.50
2019-05-11T15:54:28.809Z,84.00
2019-05-11T15:56:59.869Z,84.40
2019-05-11T15:59:30.522Z,84.60
2019-05-11T16:01:59.324Z,84.90
2019-05-11T16:04:28.361Z,85.30
2019-05-11T16:06:59.964Z,86.00
2019-05-11T16:09:29.038Z,86.90
2019-05-11T16:11:58.350Z,89.50
2019-05-11T16:14:28.232Z,90.20
2019-05-11T16:16:58.461Z,90.80
2019-05-11T16:19:28.142Z,91.10
2019-05-11T16:21:57.560Z,91.50
2019-05-11T16:24:26.388Z,91.60
2019-05-11T16:26:55.319Z,91.50
2019-05-11T16:29:24.710Z,91.80
2019-05-11T16:31:53.592Z,91.50
2019-05-11T16:34:22.813Z,91.40
2019-05-11T16:36:52.323Z,92.00
2019-05-11T16:39:22.351Z,92.10
2019-05-11T16:41:51.256Z,92.40
2019-05-11T16:44:20.369Z,92.90
2019-05-11T16:46:51.031Z,93.20
2019-05-11T16:49:28.650Z,93.00
2019-05-11T16:51:50.804Z,92.90
2019-05-11T16:54:19.709Z,92.50
2019-05-11T16:56:48.814Z,92.20
2019-05-11T16:59:18.339Z,92.00
2019-05-11T17:01:48.232Z,92.20
2019-05-11T17:04:17.282Z,92.30
2019-05-11T17:06:48.521Z,91.70
2019-05-11T17:09:17.977Z,91.30
2019-05-11T17:11:49.005Z,91.60
2019-05-11T17:14:18.794Z,91.20
2019-05-11T17:16:48.298Z,91.20
2019-05-11T17:19:18.397Z,91.80
2019-05-11T17:21:47.564Z,92.30
2019-05-11T17:24:16.578Z,93.40
2019-05-11T17:26:47.637Z,93.20
2019-05-11T17:29:18.400Z,92.50
2019-05-11T17:31:48.502Z,92.00
2019-05-11T17:34:20.601Z,92.00
2019-05-11T17:36:48.651Z,92.10
2019-05-11T17:39:18.835Z,91.70
2019-05-11T17:41:48.316Z,91.80
2019-05-11T17:44:18.564Z,91.40
2019-05-11T17:46:47.701Z,91.10
2019-05-11T17:49:18.449Z,90.90
2019-05-11T17:51:48.439Z,90.70
2019-05-11T17:54:17.983Z,90.50
2019-05-11T17:56:48.357Z,90.40
2019-05-11T17:59:19.516Z,90.30
2019-05-11T18:01:48.298Z,90.20
2019-05-11T18:04:18.441Z,90.20
2019-05-11T18:06:47.634Z,89.60
2019-05-11T18:09:18.729Z,90.10
2019-05-11T18:11:48.288Z,90.10
2019-05-11T18:14:17.379Z,90.70
2019-05-11T18:16:48.072Z,90.70
2019-05-11T18:19:19.091Z,90.50
2019-05-11T18:21:48.781Z,90.70
2019-05-11T18:24:18.024Z,90.90
2019-05-11T18:26:48.770Z,90.90
2019-05-11T18:29:18.294Z,90.90
2019-05-11T18:31:48.615Z,91.00
2019-05-11T18:34:17.909Z,90.90
2019-05-11T18:36:48.558Z,91.50
2019-05-11T18:39:18.625Z,91.90
2019-05-11T18:41:48.481Z,92.30
2019-05-11T18:44:18.765Z,93.00
2019-05-11T18:46:48.118Z,93.40
2019-05-11T18:49:17.929Z,93.90
2019-05-11T18:51:48.305Z,94.30
2019-05-11T18:54:19.191Z,94.50
2019-05-11T18:56:48.831Z,94.10
2019-05-11T18:59:19.609Z,94.20
2019-05-11T19:01:48.856Z,94.20
2019-05-11T19:04:18.527Z,94.00
2019-05-11T19:06:48.514Z,93.80
2019-05-11T19:09:18.528Z,93.70
2019-05-11T19:11:48.971Z,92.80
2019-05-11T19:14:18.588Z,92.90
2019-05-11T19:16:49.171Z,92.50
2019-05-11T19:19:18.782Z,92.10
2019-05-11T19:21:48.631Z,92.10
2019-05-11T19:24:19.017Z,92.10
2019-05-11T19:26:51.295Z,92.00
2019-05-11T19:29:21.346Z,91.50
2019-05-11T19:31:51.378Z,91.60
2019-05-11T19:34:25.351Z,91.50
2019-05-11T19:36:57.830Z,91.50
2019-05-11T19:39:28.008Z,91.60
2019-05-11T19:41:58.072Z,91.50
2019-05-11T19:44:28.422Z,91.80
2019-05-11T19:46:58.234Z,91.70
2019-05-11T19:49:30.159Z,91.60
2019-05-11T19:52:04.092Z,91.80
2019-05-11T19:54:33.030Z,91.70
2019-05-11T19:57:01.974Z,91.90
2019-05-11T19:59:30.917Z,92.00
2019-05-11T20:02:00.125Z,92.00
2019-05-11T20:04:29.069Z,91.90
2019-05-11T20:06:58.306Z,92.10
2019-05-11T20:09:28.350Z,92.00
2019-05-11T20:11:58.252Z,92.00
2019-05-11T20:14:28.391Z,92.00
2019-05-11T20:16:59.468Z,92.30
2019-05-11T20:19:28.341Z,92.10
2019-05-11T20:21:57.836Z,92.10
2019-05-11T20:24:27.878Z,92.40
2019-05-11T20:26:56.913Z,91.90
2019-05-11T20:29:27.701Z,91.70
2019-05-11T20:31:57.831Z,91.60
2019-05-11T20:34:28.842Z,91.40
2019-05-11T20:36:58.654Z,91.20
2019-05-11T20:39:28.669Z,90.80
2019-05-11T20:41:58.204Z,90.90
2019-05-11T20:44:28.665Z,90.90
2019-05-11T20:46:58.150Z,90.50
2019-05-11T20:49:28.204Z,90.30
2019-05-11T20:51:58.013Z,90.40
2019-05-11T20:54:28.123Z,90.20
2019-05-11T20:56:58.525Z,90.00
2019-05-11T20:59:28.943Z,90.00
2019-05-11T21:01:58.833Z,89.50
2019-05-11T21:04:28.355Z,89.50
2019-05-11T21:06:58.122Z,89.60
2019-05-11T21:09:28.982Z,89.50
2019-05-11T21:11:58.918Z,89.50
2019-05-11T21:14:28.886Z,89.70
2019-05-11T21:16:58.813Z,89.60
2019-05-11T21:19:28.490Z,89.60
2019-05-11T21:21:58.980Z,89.50
2019-05-11T21:24:28.300Z,89.20
2019-05-11T21:26:58.497Z,89.90
2019-05-11T21:29:31.337Z,90.00
2019-05-11T21:31:59.595Z,89.80
2019-05-11T21:34:28.857Z,89.80
2019-05-11T21:36:58.611Z,89.50
2019-05-11T21:39:28.710Z,89.60
2019-05-11T21:41:58.364Z,89.50
2019-05-11T21:44:27.915Z,89.70
2019-05-11T21:46:56.866Z,90.00
2019-05-11T21:49:32.777Z,90.10
2019-05-11T21:52:04.427Z,90.10
2019-05-11T21:54:32.391Z,90.20
2019-05-11T21:57:03.436Z,90.00
2019-05-11T21:59:34.029Z,90.00
2019-05-11T22:02:03.511Z,90.20
2019-05-11T22:04:33.369Z,90.20
2019-05-11T22:07:02.573Z,90.10
2019-05-11T22:09:31.585Z,90.50
2019-05-11T22:12:00.857Z,90.50
2019-05-11T22:14:29.999Z,90.60
2019-05-11T22:17:02.350Z,90.80
2019-05-11T22:19:29.463Z,91.00
2019-05-11T22:21:59.045Z,91.10
2019-05-11T22:24:28.255Z,91.10
2019-05-11T22:27:00.262Z,91.20
2019-05-11T22:29:37.845Z,91.30
2019-05-11T22:32:10.100Z,91.20
2019-05-11T22:34:39.422Z,91.50
2019-05-11T22:37:08.733Z,91.30
2019-05-11T22:39:38.016Z,91.40
2019-05-11T22:42:07.954Z,91.40
2019-05-11T22:44:38.655Z,91.60
2019-05-11T22:47:10.526Z,91.60
2019-05-11T22:49:39.827Z,91.60
2019-05-11T22:52:08.870Z,91.40
2019-05-11T22:54:38.356Z,91.40
2019-05-11T22:57:08.169Z,91.90
2019-05-11T22:59:38.485Z,91.90
2019-05-11T23:02:10.587Z,91.80
2019-05-11T23:04:38.386Z,92.00
2019-05-11T23:07:08.035Z,92.30
2019-05-11T23:09:38.149Z,92.60
2019-05-11T23:12:08.988Z,92.80
2019-05-11T23:14:37.887Z,93.00
2019-05-11T23:17:08.072Z,93.00
2019-05-11T23:19:38.137Z,93.30
2019-05-11T23:22:08.285Z,93.10
2019-05-11T23:24:37.425Z,93.30
2019-05-11T23:27:08.034Z,93.30
2019-05-11T23:29:38.432Z,93.50
2019-05-11T23:32:08.665Z,93.70
2019-05-11T23:34:38.797Z,93.70
2019-05-11T23:37:08.184Z,93.60
2019-05-11T23:39:38.748Z,93.90
2019-05-11T23:42:08.211Z,94.00
2019-05-11T23:44:38.240Z,94.10
2019-05-11T23:47:07.460Z,94.10
2019-05-11T23:49:36.454Z,94.10
2019-05-11T23:52:07.587Z,94.30
2019-05-11T23:54:38.229Z,94.30
2019-05-11T23:57:09.418Z,94.40
2019-05-11T23:59:38.244Z,94.50
